< < Back
Terminal Aerodrome Forecast


Current Version              Previous Versions:   1  2  3  4  5  6  7  8  9  

Terminal Aerodrome Forecast

769
FTUS42 KFFC 010055 AAA
TAFPDK
TAF AMD
KPDK 010055Z 0101/0124 27007KT P6SM FEW120 BKN250
      TEMPO 0101/0104 3SM -SHRA BKN035
     FM010400 28003KT P6SM SCT060 BKN090
     FM010900 00000KT P6SM FEW020 SCT100
     FM011600 33003KT P6SM SCT045
     FM012200 04006KT P6SM FEW050=

Latest METAR

595
SAUS70 KWBC 011000 RRP
MTRPDK
METAR KPDK 010953Z AUTO 27005KT 10SM SCT005 13/13 A2999 RMK AO2 RAE0859
SLP150 P0000 T01330128


USA.gov is the U.S. government's official web portal to all federal, state and local government web resources and services.